Time;durP1;ratioP1;P1;durP2;ratioP2;P2;SDS_P1;SDS_P2;PMS_P1;PMS_P2;Temp;Humidity;BMP_temperature;BMP_pressure;BME280_temperature;BME280_humidity;BME280_pressure;Samples;Min_cycle;Max_cycle;Signal;HPM_P1;HPM_P2
2022/11/09 13:20:54;;;;;;;11.23;2.47;;;12.90;99.90;;;;;;6185150;23;20065;-94
2022/11/09 13:34:16;;;;;;;;;;;;;;;;;;;;;
2022/11/09 13:36:42;;;;;;;9.02;2.22;;;12.50;99.90;;;;;;6238674;22;20026;-91
2022/11/09 13:40:03;;;;;;;11.57;2.25;;;12.50;99.90;;;;;;6235170;22;20039;-96
2022/11/09 13:42:41;;;;;;;11.88;1.98;;;12.40;99.90;;;;;;6237776;22;20526;-88
2022/11/09 13:45:43;;;;;;;9.10;2.10;;;12.50;99.90;;;;;;6222359;22;20094;-89
2022/11/09 13:48:25;;;;;;;11.35;2.20;;;12.40;99.90;;;;;;6220519;22;20438;-88
2022/11/09 13:50:58;;;;;;;13.02;2.42;;;12.30;99.90;;;;;;6219809;22;20069;-88
2022/11/09 13:53:55;;;;;;;8.20;1.92;;;12.30;99.90;;;;;;6220179;22;20026;-88
2022/11/09 13:56:43;;;;;;;9.73;1.92;;;12.40;99.90;;;;;;6249268;22;20110;-88
2022/11/09 13:59:26;;;;;;;9.98;1.67;;;12.70;99.90;;;;;;6221622;22;20098;-86
2022/11/09 14:01:55;;;;;;;16.70;3.17;;;12.40;99.90;;;;;;6244120;22;20523;-87
2022/11/09 14:04:30;;;;;;;9.27;1.70;;;12.50;99.90;;;;;;6244965;22;20047;-88
2022/11/09 14:07:03;;;;;;;11.68;2.38;;;12.50;99.90;;;;;;6219085;22;20020;-85
2022/11/09 14:09:35;;;;;;;;;;;12.50;99.90;;;;;;6220848;22;20015;-86
2022/11/09 14:12:16;;;;;;;7.53;1.38;;;12.60;99.90;;;;;;6244400;22;20255;-86
2022/11/09 14:14:52;;;;;;;10.10;1.75;;;12.50;99.90;;;;;;6243893;22;20069;-87
2022/11/09 14:17:26;;;;;;;7.68;1.90;;;12.50;99.90;;;;;;6244404;22;20068;-88
2022/11/09 14:20:04;;;;;;;8.60;1.65;;;12.40;99.90;;;;;;6218136;22;20050;-86
2022/11/09 14:22:34;;;;;;;11.38;1.58;;;12.50;99.90;;;;;;6218881;22;20154;-85
2022/11/09 14:25:15;;;;;;;8.35;1.52;;;12.50;99.90;;;;;;6219303;22;20023;-88
2022/11/09 14:27:56;;;;;;;7.07;1.33;;;12.40;99.90;;;;;;6219020;22;20094;-89
2022/11/09 14:30:32;;;;;;;;;;;12.30;99.90;;;;;;6246028;22;20045;-90
2022/11/09 14:33:25;;;;;;;7.95;1.25;;;12.40;99.90;;;;;;6199711;23;20007;-89
2022/11/09 14:36:21;;;;;;;7.25;1.15;;;12.40;99.90;;;;;;6184164;23;20012;-89
2022/11/09 14:38:58;;;;;;;6.55;1.10;;;12.30;99.90;;;;;;6183555;23;20024;-90
2022/11/09 14:41:42;;;;;;;5.95;1.20;;;12.40;99.90;;;;;;6187718;23;20100;-89
2022/11/09 14:44:24;;;;;;;6.00;1.20;;;12.30;99.90;;;;;;6215831;23;20023;-90
2022/11/09 14:47:20;;;;;;;7.53;1.20;;;12.30;99.90;;;;;;6216127;23;20054;-90
2022/11/09 14:50:21;;;;;;;;;;;;;;;;;;;;;
2022/11/09 14:56:00;;;;;;;6.70;1.23;;;12.20;99.90;;;;;;6148450;23;20376;-88
2022/11/09 14:58:35;;;;;;;8.18;1.30;;;12.20;99.90;;;;;;6214295;23;20514;-90
2022/11/09 15:01:27;;;;;;;;;;;;;;;;;;;;;
2022/11/09 15:04:22;;;;;;;5.80;1.35;;;12.10;99.90;;;;;;6214747;23;19923;-89
2022/11/09 15:07:01;;;;;;;;;;;;;;;;;;;;;
2022/11/09 15:09:47;;;;;;;5.90;1.30;;;11.90;99.90;;;;;;6241789;23;20091;-89
2022/11/09 15:12:23;;;;;;;8.20;1.55;;;11.80;99.90;;;;;;6188974;23;20094;-88
2022/11/09 15:15:25;;;;;;;6.20;1.08;;;11.60;99.90;;;;;;6188975;23;20082;-88
2022/11/09 15:18:31;;;;;;;;;;;;;;;;;;;;;
2022/11/09 15:24:51;;;;;;;6.82;1.25;;;11.50;99.90;;;;;;6139413;23;20528;-89
2022/11/09 15:28:05;;;;;;;;;;;;;;;;;;;;;
2022/11/09 15:31:14;;;;;;;;;;;;;;;;;;;;;
2022/11/09 15:34:40;;;;;;;13.43;1.92;;;11.20;99.90;;;;;;6163253;23;20098;-89
2022/11/09 15:38:00;;;;;;;;;;;;;;;;;;;;;
2022/11/09 15:40:51;;;;;;;8.98;1.92;;;11.00;99.90;;;;;;6207826;23;20519;-89
2022/11/09 15:43:45;;;;;;;;;;;;;;;;;;;;;
2022/11/09 15:46:50;;;;;;;10.15;1.67;;;11.10;99.90;;;;;;6211353;23;20023;-89
2022/11/09 15:49:35;;;;;;;8.48;1.77;;;11.00;99.90;;;;;;6114409;23;20042;-89
2022/11/09 15:53:00;;;;;;;8.73;1.50;;;11.00;99.90;;;;;;6189804;23;20031;-88
2022/11/09 15:54:56;;;;;;;10.88;2.00;;;10.90;99.90;;;;;;6185753;23;20030;-90
2022/11/09 15:57:27;;;;;;;8.95;1.48;;;11.00;99.90;;;;;;6189562;23;20448;-89
2022/11/09 15:59:58;;;;;;;9.65;1.55;;;11.00;99.90;;;;;;6213435;23;20016;-89
2022/11/09 16:02:24;;;;;;;12.40;1.85;;;10.90;99.90;;;;;;6188429;23;20020;-88
2022/11/09 16:04:50;;;;;;;6.70;1.30;;;11.00;99.90;;;;;;6187591;23;20047;-88
2022/11/09 16:07:16;;;;;;;7.28;1.33;;;11.10;99.90;;;;;;6190596;23;20578;-88
2022/11/09 16:09:52;;;;;;;;;;;;;;;;;;;;;
2022/11/09 16:13:13;;;;;;;;;;;;;;;;;;;;;
2022/11/09 16:16:16;;;;;;;;;;;;;;;;;;;;;
2022/11/09 16:19:50;;;;;;;7.40;1.33;;;11.00;99.90;;;;;;6215058;23;20091;-89
2022/11/09 16:21:54;;;;;;;7.60;1.45;;;11.10;99.90;;;;;;6191934;23;20023;-88
2022/11/09 16:24:40;;;;;;;11.65;1.80;;;11.00;99.90;;;;;;6189508;23;20078;-89
2022/11/09 16:27:14;;;;;;;8.18;1.30;;;11.00;99.90;;;;;;6189139;23;20020;-89
2022/11/09 16:30:00;;;;;;;;;;;;;;;;;;;;;
2022/11/09 16:32:43;;;;;;;7.57;1.52;;;11.00;99.90;;;;;;6207960;23;20464;-89
2022/11/09 16:35:17;;;;;;;8.07;1.77;;;10.70;99.90;;;;;;6183627;23;20099;-90
2022/11/09 16:37:53;;;;;;;;;;;;;;;;;;;;;
2022/11/09 16:40:23;;;;;;;10.25;1.83;;;10.90;99.90;;;;;;6208541;23;20619;-89
2022/11/09 16:43:21;;;;;;;;;;;;;;;;;;;;;
2022/11/09 16:46:53;;;;;;;8.85;1.77;;;10.80;99.90;;;;;;6197711;23;20021;-90
2022/11/09 16:49:02;;;;;;;9.00;2.15;;;10.90;99.90;;;;;;6199728;23;20020;-90
2022/11/09 16:52:06;;;;;;;13.93;2.78;;;10.90;99.90;;;;;;6185097;23;20100;-89
2022/11/09 16:55:13;;;;;;;;;;;;;;;;;;;;;
2022/11/09 17:04:09;;;;;;;9.45;1.83;;;10.80;99.90;;;;;;6131359;23;20020;-89
2022/11/09 17:07:02;;;;;;;9.90;1.80;;;11.00;99.90;;;;;;6188732;23;20062;-88
2022/11/09 17:09:36;;;;;;;11.50;2.28;;;10.90;99.90;;;;;;6087056;23;20030;-88
2022/11/09 17:13:04;;;;;;;9.90;1.92;;;10.90;99.90;;;;;;6183273;23;20545;-88
2022/11/09 17:16:20;;;;;;;11.18;1.90;;;10.90;99.90;;;;;;6123328;23;20440;-89
2022/11/09 17:19:19;;;;;;;;;;;;;;;;;;;;;
2022/11/09 17:22:15;;;;;;;;;;;;;;;;;;;;;
2022/11/09 17:29:15;;;;;;;13.95;1.92;;;11.00;99.90;;;;;;6065236;23;20086;-89
2022/11/09 17:32:28;;;;;;;12.73;1.58;;;11.00;99.90;;;;;;6139364;23;20024;-89
2022/11/09 17:38:57;;;;;;;10.88;1.58;;;11.00;99.90;;;;;;6080865;23;20028;-88
2022/11/09 17:45:03;;;;;;;12.77;1.95;;;11.30;99.90;;;;;;6111093;23;20024;-88
2022/11/09 17:48:06;;;;;;;11.02;1.55;;;10.90;99.90;;;;;;6201916;22;20031;-88
2022/11/09 17:51:11;;;;;;;12.07;1.75;;;10.90;99.90;;;;;;6245261;22;20131;-86
2022/11/09 17:54:19;;;;;;;;;;;;;;;;;;;;;
2022/11/09 17:57:27;;;;;;;13.48;2.20;;;10.90;99.90;;;;;;6154191;22;20020;-89
2022/11/09 18:06:49;;;;;;;14.45;1.83;;;11.00;99.90;;;;;;6145975;22;20028;-88
2022/11/09 18:19:47;;;;;;;12.80;1.65;;;10.80;99.90;;;;;;6194372;22;20024;-88
2022/11/09 18:26:48;;;;;;;;;;;;;;;;;;;;;
2022/11/09 18:30:40;;;;;;;;;;;;;;;;;;;;;
2022/11/09 18:43:26;;;;;;;;;;;;;;;;;;;;;
2022/11/09 18:47:12;;;;;;;;;;;;;;;;;;;;;
2022/11/09 18:50:18;;;;;;;;;;;;;;;;;;;;;
2022/11/09 18:53:33;;;;;;;12.32;1.77;;;10.60;99.90;;;;;;6234718;22;20146;-91
2022/11/09 18:56:27;;;;;;;;;;;;;;;;;;;;;
2022/11/09 19:00:07;;;;;;;;;;;;;;;;;;;;;
2022/11/09 19:02:58;;;;;;;15.00;2.05;;;10.60;99.90;;;;;;6137230;22;20507;-91
2022/11/09 19:06:08;;;;;;;11.30;1.48;;;10.50;99.90;;;;;;6216778;22;20019;-90
2022/11/09 19:12:05;;;;;;;17.33;2.60;;;10.20;99.90;;;;;;6155557;22;20023;-89
2022/11/09 19:22:20;;;;;;;;;;;;;;;;;;;;;
2022/11/09 19:25:12;;;;;;;15.35;2.47;;;10.70;99.90;;;;;;6151428;22;20015;-90
2022/11/09 19:28:16;;;;;;;11.30;1.80;;;10.40;99.90;;;;;;6203676;22;20020;-89
2022/11/09 19:31:14;;;;;;;;;;;10.40;99.90;;;;;;6272188;22;20054;-88
2022/11/09 19:34:12;;;;;;;12.98;2.35;;;10.40;99.90;;;;;;6205691;22;20683;-89
2022/11/09 19:41:25;;;;;;;13.70;2.25;;;10.20;99.90;;;;;;6105115;23;20028;-90
2022/11/09 19:43:43;;;;;;;;;;;;;;;;;;;;;
2022/11/09 19:46:29;;;;;;;;;;;;;;;;;;;;;
2022/11/09 19:49:17;;;;;;;13.10;2.38;;;10.30;99.90;;;;;;6212325;23;20095;-86
2022/11/09 19:51:50;;;;;;;12.50;2.30;;;10.30;99.90;;;;;;6186329;23;20120;-87
2022/11/09 19:54:37;;;;;;;19.00;2.05;;;10.20;99.90;;;;;;6190403;23;20016;-86
2022/11/09 19:57:41;;;;;;;12.70;2.50;;;10.20;99.90;;;;;;6211492;23;20375;-85
2022/11/09 20:00:34;;;;;;;19.00;2.60;;;10.30;99.90;;;;;;6201082;23;20039;-87
2022/11/09 20:06:32;;;;;;;17.73;2.38;;;10.10;99.90;;;;;;6154284;23;20031;-87
2022/11/09 20:09:54;;;;;;;;;;;;;;;;;;;;;
2022/11/09 20:13:49;;;;;;;17.55;3.63;;;10.10;99.90;;;;;;6138328;23;20022;-87
2022/11/09 20:16:53;;;;;;;;;;;;;;;;;;;;;
2022/11/09 20:19:50;;;;;;;23.20;2.95;;;10.20;99.90;;;;;;6208889;23;20020;-86
2022/11/09 20:25:42;;;;;;;18.40;2.70;;;10.00;99.90;;;;;;6162605;23;20370;-86
2022/11/09 20:28:16;;;;;;;14.35;2.60;;;10.00;99.90;;;;;;6238448;23;20067;-86
2022/11/09 20:31:12;;;;;;;15.40;2.75;;;10.20;99.90;;;;;;6186770;23;20024;-86
2022/11/09 20:33:38;;;;;;;15.57;2.38;;;10.40;99.90;;;;;;6210226;23;20016;-89
2022/11/09 20:36:13;;;;;;;15.05;2.42;;;10.00;99.90;;;;;;6187055;23;20094;-86
2022/11/09 20:38:53;;;;;;;18.27;2.30;;;10.20;99.90;;;;;;6213174;23;20279;-88
2022/11/09 20:41:26;;;;;;;14.63;2.70;;;10.00;99.90;;;;;;6186805;23;20063;-87
2022/11/09 20:44:05;;;;;;;12.27;2.50;;;10.00;99.90;;;;;;6187925;23;20044;-88
2022/11/09 20:46:31;;;;;;;17.45;2.75;;;9.90;99.90;;;;;;6185536;23;20082;-87
2022/11/09 20:48:59;;;;;;;14.05;2.40;;;9.90;99.90;;;;;;6185298;23;20348;-88
2022/11/09 20:51:25;;;;;;;16.52;2.30;;;10.00;99.90;;;;;;6187875;23;20027;-87
2022/11/09 20:53:51;;;;;;;14.57;2.30;;;9.90;99.90;;;;;;6185001;23;20016;-86
2022/11/09 20:56:18;;;;;;;12.35;2.22;;;10.00;99.90;;;;;;6186971;23;20012;-87
2022/11/09 20:58:44;;;;;;;14.40;2.10;;;9.90;99.90;;;;;;6185842;23;20046;-86
2022/11/09 21:01:14;;;;;;;19.60;2.60;;;10.00;99.90;;;;;;6210748;23;20123;-87
2022/11/09 21:03:40;;;;;;;15.23;2.22;;;10.10;99.90;;;;;;6184520;23;20769;-89
2022/11/09 21:06:06;;;;;;;11.35;1.80;;;9.80;99.90;;;;;;6212621;23;20020;-88
2022/11/09 21:08:33;;;;;;;11.18;1.95;;;9.80;99.90;;;;;;6186238;23;20020;-87
2022/11/09 21:11:00;;;;;;;14.38;2.33;;;9.80;99.90;;;;;;6185276;23;20024;-86
2022/11/09 21:13:26;;;;;;;16.02;2.20;;;10.10;99.90;;;;;;6185764;23;20059;-87
2022/11/09 21:15:52;;;;;;;11.32;1.83;;;10.20;99.90;;;;;;6184402;23;21905;-87
2022/11/09 21:18:18;;;;;;;8.23;1.63;;;9.80;99.90;;;;;;6185232;23;20445;-87
2022/11/09 21:20:43;;;;;;;10.43;2.05;;;9.80;99.90;;;;;;6185715;23;20039;-88
2022/11/09 21:31:05;;;;;;;12.73;1.58;;;9.70;99.90;;;;;;6210701;23;20020;-86
2022/11/09 21:33:31;;;;;;;8.88;1.50;;;9.70;99.90;;;;;;6187273;23;20020;-88
2022/11/09 21:35:57;;;;;;;9.20;1.83;;;9.80;99.90;;;;;;6189517;23;20091;-87
2022/11/09 21:38:23;;;;;;;10.68;2.20;;;9.70;99.90;;;;;;6187841;23;20028;-89
2022/11/09 21:40:51;;;;;;;7.55;1.73;;;9.60;99.90;;;;;;6188914;23;20016;-84
2022/11/09 21:43:17;;;;;;;10.10;1.33;;;9.70;99.90;;;;;;6213196;23;20111;-85
2022/11/09 21:45:48;;;;;;;12.70;1.80;;;9.70;99.90;;;;;;6187878;23;20640;-85
2022/11/09 21:48:13;;;;;;;16.40;1.88;;;9.80;99.90;;;;;;6212743;23;20020;-84
2022/11/09 21:50:39;;;;;;;11.35;1.42;;;9.70;99.90;;;;;;6212584;23;20382;-85
2022/11/09 21:53:05;;;;;;;11.85;1.67;;;10.20;99.90;;;;;;6188750;23;20098;-85
2022/11/09 21:55:30;;;;;;;6.90;1.25;;;9.70;99.90;;;;;;6213143;23;20008;-84
2022/11/09 21:57:56;;;;;;;6.63;1.10;;;9.70;99.90;;;;;;6212403;23;20443;-84
2022/11/09 22:00:22;;;;;;;15.23;2.30;;;9.70;99.90;;;;;;6213869;23;20012;-85
2022/11/09 22:02:47;;;;;;;8.65;1.27;;;10.40;99.90;;;;;;6211036;23;20024;-84
2022/11/09 22:05:13;;;;;;;11.48;1.63;;;9.70;99.90;;;;;;6213141;23;20070;-84
2022/11/09 22:07:39;;;;;;;10.50;1.75;;;9.80;99.90;;;;;;6212305;23;20019;-84
2022/11/09 22:10:05;;;;;;;10.15;1.77;;;10.30;99.90;;;;;;6187911;23;20310;-84
2022/11/09 22:17:59;;;;;;;8.15;1.30;;;9.70;99.90;;;;;;6211004;23;20061;-85
2022/11/09 22:23:08;;;;;;;12.73;1.92;;;9.70;99.90;;;;;;6213463;23;20101;-84
2022/11/09 22:25:34;;;;;;;8.88;1.30;;;9.80;99.90;;;;;;6212579;23;20025;-84
2022/11/09 22:28:00;;;;;;;11.77;1.75;;;10.10;99.90;;;;;;6187479;23;20012;-84
2022/11/09 22:30:25;;;;;;;11.43;1.33;;;9.80;99.90;;;;;;6188533;23;20476;-84
2022/11/09 22:32:51;;;;;;;11.68;2.00;;;9.90;99.90;;;;;;6185442;23;20012;-84
2022/11/09 22:35:17;;;;;;;19.20;2.45;;;10.00;99.90;;;;;;6188571;23;20055;-86
2022/11/09 22:37:42;;;;;;;14.07;1.73;;;9.90;99.90;;;;;;6188206;23;20019;-84
2022/11/09 22:40:09;;;;;;;8.88;2.00;;;10.00;99.90;;;;;;6213186;23;20068;-85
2022/11/09 22:42:34;;;;;;;11.48;2.20;;;10.00;99.90;;;;;;6213114;23;20016;-83
2022/11/09 22:45:00;;;;;;;12.32;1.80;;;10.10;99.90;;;;;;6187358;23;20091;-84
2022/11/09 22:47:26;;;;;;;11.48;1.73;;;9.90;99.90;;;;;;6211972;23;20063;-83
2022/11/09 22:49:51;;;;;;;13.88;2.25;;;9.80;99.90;;;;;;6212471;23;20359;-84
2022/11/09 22:52:17;;;;;;;17.08;3.20;;;9.80;99.90;;;;;;6212603;23;20016;-84
2022/11/09 22:54:43;;;;;;;17.38;3.58;;;9.80;99.90;;;;;;6187283;23;20020;-84
2022/11/09 22:57:09;;;;;;;19.73;4.20;;;9.90;99.90;;;;;;6187698;23;20459;-83
2022/11/09 22:59:34;;;;;;;15.82;3.88;;;9.90;99.90;;;;;;6212319;23;20020;-83
2022/11/09 23:02:00;;;;;;;13.02;4.10;;;9.80;99.90;;;;;;6186486;23;20340;-83
2022/11/09 23:04:26;;;;;;;19.10;4.53;;;10.10;99.90;;;;;;6212103;23;20091;-84
2022/11/09 23:06:52;;;;;;;18.58;4.80;;;9.90;99.90;;;;;;6211825;23;20120;-83
2022/11/09 23:09:17;;;;;;;15.55;4.88;;;9.90;99.90;;;;;;6187251;23;20016;-83
2022/11/09 23:11:43;;;;;;;18.80;6.05;;;10.10;99.90;;;;;;6187002;23;20016;-83
2022/11/09 23:14:10;;;;;;;19.52;5.60;;;9.80;99.90;;;;;;6240522;23;20054;-84
2022/11/09 23:16:36;;;;;;;14.50;4.38;;;9.80;99.90;;;;;;6210945;23;20383;-83
2022/11/09 23:19:01;;;;;;;13.00;4.07;;;10.00;99.90;;;;;;6187152;23;20109;-83
2022/11/09 23:21:33;;;;;;;17.23;4.05;;;9.60;99.90;;;;;;6187365;23;20082;-84
2022/11/09 23:24:02;;;;;;;14.73;3.90;;;9.70;99.90;;;;;;6212914;23;20396;-84
2022/11/09 23:26:29;;;;;;;17.13;3.88;;;9.70;99.90;;;;;;6212704;23;20022;-84
2022/11/09 23:28:54;;;;;;;26.75;4.15;;;9.60;99.90;;;;;;6186701;23;20074;-83
2022/11/09 23:31:23;;;;;;;16.40;3.53;;;9.60;99.90;;;;;;6187086;23;20456;-84
2022/11/09 23:33:51;;;;;;;13.20;3.55;;;10.20;99.90;;;;;;6211545;23;20020;-84
2022/11/09 23:36:17;;;;;;;21.83;3.30;;;9.50;99.90;;;;;;6211921;23;20024;-84
2022/11/09 23:38:43;;;;;;;12.45;2.75;;;9.40;99.90;;;;;;6186960;23;20087;-84
2022/11/09 23:41:11;;;;;;;12.75;2.40;;;9.70;99.90;;;;;;6187958;23;20401;-83
2022/11/09 23:43:37;;;;;;;15.68;2.15;;;9.40;99.90;;;;;;6186308;23;20016;-84
2022/11/09 23:46:05;;;;;;;10.80;2.55;;;9.30;99.90;;;;;;6207280;23;20032;-84
2022/11/09 23:48:31;;;;;;;14.48;2.50;;;9.40;99.90;;;;;;6180606;23;20508;-83
2022/11/09 23:50:58;;;;;;;16.27;2.53;;;9.30;99.90;;;;;;6206980;23;20063;-84
2022/11/09 23:53:26;;;;;;;15.25;2.40;;;9.30;99.90;;;;;;6207614;23;20067;-84
2022/11/09 23:55:51;;;;;;;14.27;2.17;;;9.40;99.90;;;;;;6181551;23;20047;-83
2022/11/09 23:58:17;;;;;;;15.65;2.83;;;9.30;99.90;;;;;;6181825;23;20028;-84
